Rockton Aerodrome Weather Briefing

Page generated at:
Thu Jun 20 11:00:02 UTC 2024
Thu Jun 20 07:00:02 EDT 2024
For soaring conditions, visit XCSkies or SkySight
For the tephigram, visit Tephigrams
For a map of NOTAMs, visit NOTAM Map
Nobody wants the source code to this

Environment Canada weather for Cambridge - Kitchener - Waterloo:

Kitchener - Cambridge - Region of Waterloo.
Today..A mix of sun and cloud with 40 percent chance of showers and
 risk of a thunderstorm. Wind becoming north 30 km/h late this
 afternoon. High 32. Humidex 41. UV index 10 or very high.
Tonight..Partly cloudy with 30 percent chance of showers and risk of
 a thunderstorm. Wind north 30 km/h becoming light this evening.
 Low 19.
Friday..A mix of sun and cloud with 30 percent chance of showers.
 Risk of a thunderstorm in the afternoon. High 31. Humidex 40. UV
 index 10 or very high.

Environment Canada weather for Hamilton:

City of Hamilton.
Today..A mix of sun and cloud. 30 percent chance of showers early
 this morning and this afternoon. Risk of a thunderstorm. High 31.
 Humidex 40. UV index 10 or very high.
Tonight..Partly cloudy with 30 percent chance of showers and risk of
 a thunderstorm. Low 21.
Friday..A mix of sun and cloud with 30 percent chance of showers.
 Risk of a thunderstorm in the afternoon. Wind becoming northeast
 20 km/h late in the afternoon. High 30. Humidex 38. UV index 10 or
 very high.

METARs and TAFs for Waterloo, Hamilton, London and Toronto:

Waterloo Well , Canada (CYKF) 43-28N 080-23W
Jun 20, 2024 - 06:00 AM EDT / 2024.06.20 1000 UTC
Wind: from the NNE (030 degrees) at 5 MPH (4 KT):0
Visibility: 9 mile(s):0
Sky conditions: overcast
Temperature: 68 F (20 C)
Dew Point: 68 F (20 C)
Relative Humidity: 100%
Pressure (altimeter): 30.3 in. Hg (1026 hPa)
ob: CYKF 201000Z AUTO 03004KT 9SM SCT096 BKN170 OVC250 20/20 A3030 RMK SLP255 DENSITY ALT 1500FT
cycle: 10

Hamilton Airport , Canada (CYHM) 43-10N 079-56W Jun 20, 2024 - 06:00 AM EDT / 2024.06.20 1000 UTC Wind: from the N (350 degrees) at 6 MPH (5 KT) (direction variable):0 Visibility: 15 mile(s):0 Sky conditions: mostly cloudy Temperature: 68 F (20 C) Dew Point: 68 F (20 C) Relative Humidity: 100% Pressure (altimeter): 30.29 in. Hg (1025 hPa) ob: CYHM 201000Z 35005KT 300V010 15SM FEW065 BKN110 20/20 A3029 RMK SC2AC5 SLP254 DENSITY ALT 1200FT cycle: 10
London, Ont., Canada (CYXU) 43-02N 081-09W 278M Jun 20, 2024 - 06:00 AM EDT / 2024.06.20 1000 UTC Wind: from the NE (050 degrees) at 2 MPH (2 KT):0 Visibility: 15 mile(s):0 Sky conditions: mostly cloudy Temperature: 68 F (20 C) Dew Point: 68 F (20 C) Relative Humidity: 100% Pressure (altimeter): 30.28 in. Hg (1025 hPa) ob: CYXU 201000Z 05002KT 15SM FEW060 BKN120 BKN190 20/20 A3028 RMK SC1AC5AC2 SC TR SLP253 DENSITY ALT 1300FT cycle: 10
Toronto Pearson Int'L. Ont., Canada (CYYZ) 43-40N 079-38W 173M Jun 20, 2024 - 06:00 AM EDT / 2024.06.20 1000 UTC Wind: from the E (080 degrees) at 3 MPH (3 KT) (direction variable):0 Visibility: 15 mile(s):0 Sky conditions: mostly cloudy Temperature: 71 F (22 C) Dew Point: 71 F (22 C) Relative Humidity: 100% Pressure (altimeter): 30.26 in. Hg (1024 hPa) ob: CYYZ 201000Z 08003KT 320V080 15SM SCT060 BKN130 BKN160 22/22 A3026 RMK SC3AC2AC2 SLP246 DENSITY ALT 1200FT cycle: 10

Waterloo Webcam (SOSA is on the horizon)


Weather Channel map: - Current Maps

Satellite images:


Graphical Area Forecasts:

Current:

6 hour forecast:

12 hour forecast:


Precipitation radar:

Canadian:

American:


Latest Satellite Images

Visible:

Visibility:

Infrared (Temp):

Water Vapour:


Forecast Surface Conditions







BLIPMAPs for the area:

If these images do not load, you need to get a cookie from Dr. Jack. This Day:



Next Day:



Day After: